<?xml version="1.0" encoding="UTF-8" standalone="no" ?>
<gpx xmlns="http://www.topografix.com/GPX/1/1" xmlns:xsi="http://www.w3.org/2001/XMLSchema-instance" xsi:schemaLocation="http://www.topografix.com/GPX/1/1 http://www.topografix.com/GPX/1/1/gpx.xsd" version="1.1" creator="VisuGPX - https://www.visugpx.com">
  <metadata>
    <name>Paysac - Les Fabres</name>
    <desc><![CDATA[Pays de grès,de calvaires, de monuments parfois austères, toujours à voir pour qui est curieux.]]></desc>
  </metadata>
  <wpt lat="44.45179" lon="4.14892">
    <ele>370.69</ele>
    <name><![CDATA[0000242]]></name>
    <desc><![CDATA[]]></desc>
    <type><![CDATA[Point de départ]]></type>
  </wpt>
  <wpt lat="44.45915" lon="4.13059">
    <ele>326.97</ele>
    <name><![CDATA[0000243]]></name>
    <desc><![CDATA[<br /><h3>Nom: Segment 1</h3><br /><p>Temps de départ: 05/05/2015 13:49</p><p>Temps d'arrivée: 05/05/2015 16:21</p><p>Distance: 7km (02:31)</p><p>Temps déplacement: 01:37</p><p>Vitesse moyenne: 2,8km/h</p><p>Vitesse moyenne: 4,3km/h</p><p>Vitess Max.: 8,1km/h</p><p>Altitude minimale: 298m</p><p>Altitude maximale: 462m</p><p>Vitesse d'élévation: 340,8m/h</p><p>Vitesse de descente: -289,6m/h</p><p>Gain Altitude: 338m</p><p>Perte Altitude: -380m</p><p>Temps d'élévation: 00:59</p><p>Temps de descente: 01:18</p>]]></desc>
    <type><![CDATA[Point d'arrivée]]></type>
  </wpt>
  <wpt lat="44.45194" lon="4.14908">
    <ele>383.01</ele>
    <name><![CDATA[0000244]]></name>
    <desc><![CDATA[<br /><h3>Nom: Segment 1</h3><br /><p>Temps de départ: 05/05/2015 13:49</p><p>Temps d'arrivée: 05/05/2015 17:25</p><p>Distance: 10,3km (03:36)</p><p>Temps déplacement: 02:24</p><p>Vitesse moyenne: 2,9km/h</p><p>Vitesse moyenne: 4,3km/h</p><p>Vitess Max.: 8,3km/h</p><p>Altitude minimale: 298m</p><p>Altitude maximale: 462m</p><p>Vitesse d'élévation: 329,3m/h</p><p>Vitesse de descente: -303,3m/h</p><p>Gain Altitude: 519m</p><p>Perte Altitude: -513m</p><p>Temps d'élévation: 01:34</p><p>Temps de descente: 01:41</p>]]></desc>
    <type><![CDATA[Point d'arrivée]]></type>
  </wpt>
  <trk>
    <name><![CDATA[Paysac]]></name>
    <desc><![CDATA[<h1>OruxMaps</h1><br /><hr align="center" width="480" style="height: 2px; width: 517px"/><h2>Nom: Paysac</h2><br /><p>Temps de départ: 05/05/2015 13:49</p><p>Temps d'arrivée: 05/05/2015 17:25</p><p>Distance: 10,3km (03:36)</p><p>Temps déplacement: 02:24</p><p>Vitesse moyenne: 2,9km/h</p><p>Vitesse moyenne: 4,3km/h</p><p>Vitess Max.: 8,3km/h</p><p>Altitude minimale: 298m</p><p>Altitude maximale: 462m</p><p>Vitesse d'élévation: 329,3m/h</p><p>Vitesse de descente: -303,3m/h</p><p>Gain Altitude: 519m</p><p>Perte Altitude: -513m</p><p>Temps d'élévation: 01:34</p><p>Temps de descente: 01:41</p><hr align="center" width="480" style="height: 2px; width: 517px"/>]]></desc>
    <trkseg>
      <trkpt lat="44.45179" lon="4.14892">
        <ele>370.69</ele>
        <time>2015-05-05T11:49:53Z</time>
      </trkpt>
      <trkpt lat="44.45197" lon="4.14885">
        <ele>405.36</ele>
        <time>2015-05-05T11:52:52Z</time>
      </trkpt>
      <trkpt lat="44.45213" lon="4.14897">
        <ele>399.75</ele>
        <time>2015-05-05T11:53:12Z</time>
      </trkpt>
      <trkpt lat="44.45224" lon="4.14917">
        <ele>400.87</ele>
        <time>2015-05-05T11:53:27Z</time>
      </trkpt>
      <trkpt lat="44.45242" lon="4.14924">
        <ele>387.24</ele>
        <time>2015-05-05T11:53:50Z</time>
      </trkpt>
      <trkpt lat="44.4525" lon="4.14902">
        <ele>392.95</ele>
        <time>2015-05-05T11:54:09Z</time>
      </trkpt>
      <trkpt lat="44.45245" lon="4.14878">
        <ele>394.96</ele>
        <time>2015-05-05T11:54:27Z</time>
      </trkpt>
      <trkpt lat="44.45243" lon="4.14851">
        <ele>393.97</ele>
        <time>2015-05-05T11:54:46Z</time>
      </trkpt>
      <trkpt lat="44.45237" lon="4.14826">
        <ele>388.89</ele>
        <time>2015-05-05T11:55:05Z</time>
      </trkpt>
      <trkpt lat="44.45241" lon="4.148">
        <ele>392.79</ele>
        <time>2015-05-05T11:55:31Z</time>
      </trkpt>
      <trkpt lat="44.4524" lon="4.14773">
        <ele>396.14</ele>
        <time>2015-05-05T11:56:01Z</time>
      </trkpt>
      <trkpt lat="44.45241" lon="4.14746">
        <ele>390.07</ele>
        <time>2015-05-05T11:56:23Z</time>
      </trkpt>
      <trkpt lat="44.45241" lon="4.1472">
        <ele>390.62</ele>
        <time>2015-05-05T11:56:38Z</time>
      </trkpt>
      <trkpt lat="44.45239" lon="4.14694">
        <ele>393.03</ele>
        <time>2015-05-05T11:56:54Z</time>
      </trkpt>
      <trkpt lat="44.4524" lon="4.14669">
        <ele>397.17</ele>
        <time>2015-05-05T11:57:10Z</time>
      </trkpt>
      <trkpt lat="44.45241" lon="4.14643">
        <ele>399.03</ele>
        <time>2015-05-05T11:57:25Z</time>
      </trkpt>
      <trkpt lat="44.45242" lon="4.14617">
        <ele>398.47</ele>
        <time>2015-05-05T11:57:38Z</time>
      </trkpt>
      <trkpt lat="44.45249" lon="4.14592">
        <ele>402.12</ele>
        <time>2015-05-05T11:57:56Z</time>
      </trkpt>
      <trkpt lat="44.45254" lon="4.14567">
        <ele>408.61</ele>
        <time>2015-05-05T11:58:11Z</time>
      </trkpt>
      <trkpt lat="44.45259" lon="4.14542">
        <ele>406.64</ele>
        <time>2015-05-05T11:58:27Z</time>
      </trkpt>
      <trkpt lat="44.45266" lon="4.14518">
        <ele>407.2</ele>
        <time>2015-05-05T11:58:41Z</time>
      </trkpt>
      <trkpt lat="44.45272" lon="4.14494">
        <ele>404.63</ele>
        <time>2015-05-05T11:58:57Z</time>
      </trkpt>
      <trkpt lat="44.45276" lon="4.14468">
        <ele>403</ele>
        <time>2015-05-05T11:59:12Z</time>
      </trkpt>
      <trkpt lat="44.45283" lon="4.14443">
        <ele>399.42</ele>
        <time>2015-05-05T11:59:29Z</time>
      </trkpt>
      <trkpt lat="44.4529" lon="4.14419">
        <ele>402.94</ele>
        <time>2015-05-05T11:59:45Z</time>
      </trkpt>
      <trkpt lat="44.453" lon="4.14398">
        <ele>406.97</ele>
        <time>2015-05-05T11:59:59Z</time>
      </trkpt>
      <trkpt lat="44.45311" lon="4.14377">
        <ele>403.16</ele>
        <time>2015-05-05T12:00:15Z</time>
      </trkpt>
      <trkpt lat="44.45318" lon="4.14353">
        <ele>397.69</ele>
        <time>2015-05-05T12:00:33Z</time>
      </trkpt>
      <trkpt lat="44.45336" lon="4.14341">
        <ele>396.83</ele>
        <time>2015-05-05T12:00:47Z</time>
      </trkpt>
      <trkpt lat="44.45348" lon="4.14321">
        <ele>400.33</ele>
        <time>2015-05-05T12:01:01Z</time>
      </trkpt>
      <trkpt lat="44.45363" lon="4.14305">
        <ele>398.54</ele>
        <time>2015-05-05T12:01:24Z</time>
      </trkpt>
      <trkpt lat="44.45366" lon="4.14279">
        <ele>411.78</ele>
        <time>2015-05-05T12:02:19Z</time>
      </trkpt>
      <trkpt lat="44.45379" lon="4.14296">
        <ele>405</ele>
        <time>2015-05-05T12:02:29Z</time>
      </trkpt>
      <trkpt lat="44.45375" lon="4.14269">
        <ele>405.15</ele>
        <time>2015-05-05T12:03:14Z</time>
      </trkpt>
      <trkpt lat="44.45384" lon="4.14246">
        <ele>405.9</ele>
        <time>2015-05-05T12:03:30Z</time>
      </trkpt>
      <trkpt lat="44.45397" lon="4.14225">
        <ele>405.55</ele>
        <time>2015-05-05T12:03:47Z</time>
      </trkpt>
      <trkpt lat="44.45406" lon="4.14204">
        <ele>406.71</ele>
        <time>2015-05-05T12:04:01Z</time>
      </trkpt>
      <trkpt lat="44.45416" lon="4.14183">
        <ele>407.66</ele>
        <time>2015-05-05T12:04:18Z</time>
      </trkpt>
      <trkpt lat="44.45427" lon="4.14161">
        <ele>402.27</ele>
        <time>2015-05-05T12:04:36Z</time>
      </trkpt>
      <trkpt lat="44.45437" lon="4.14138">
        <ele>402.13</ele>
        <time>2015-05-05T12:04:54Z</time>
      </trkpt>
      <trkpt lat="44.45451" lon="4.14122">
        <ele>404.89</ele>
        <time>2015-05-05T12:05:09Z</time>
      </trkpt>
      <trkpt lat="44.45465" lon="4.14106">
        <ele>400</ele>
        <time>2015-05-05T12:05:37Z</time>
      </trkpt>
      <trkpt lat="44.4548" lon="4.14091">
        <ele>398.86</ele>
        <time>2015-05-05T12:05:57Z</time>
      </trkpt>
      <trkpt lat="44.45496" lon="4.14079">
        <ele>400.44</ele>
        <time>2015-05-05T12:07:02Z</time>
      </trkpt>
      <trkpt lat="44.45514" lon="4.14072">
        <ele>399.38</ele>
        <time>2015-05-05T12:07:15Z</time>
      </trkpt>
      <trkpt lat="44.45529" lon="4.14058">
        <ele>403.06</ele>
        <time>2015-05-05T12:07:36Z</time>
      </trkpt>
      <trkpt lat="44.45547" lon="4.14053">
        <ele>404.76</ele>
        <time>2015-05-05T12:07:58Z</time>
      </trkpt>
      <trkpt lat="44.45562" lon="4.14038">
        <ele>410.88</ele>
        <time>2015-05-05T12:08:11Z</time>
      </trkpt>
      <trkpt lat="44.45579" lon="4.14028">
        <ele>412.47</ele>
        <time>2015-05-05T12:08:31Z</time>
      </trkpt>
      <trkpt lat="44.45597" lon="4.1402">
        <ele>408.07</ele>
        <time>2015-05-05T12:08:50Z</time>
      </trkpt>
      <trkpt lat="44.45614" lon="4.14013">
        <ele>402.4</ele>
        <time>2015-05-05T12:09:14Z</time>
      </trkpt>
      <trkpt lat="44.45632" lon="4.14005">
        <ele>398.84</ele>
        <time>2015-05-05T12:09:36Z</time>
      </trkpt>
      <trkpt lat="44.45651" lon="4.14005">
        <ele>407.07</ele>
        <time>2015-05-05T12:10:08Z</time>
      </trkpt>
      <trkpt lat="44.45669" lon="4.14001">
        <ele>400.48</ele>
        <time>2015-05-05T12:10:22Z</time>
      </trkpt>
      <trkpt lat="44.45687" lon="4.14001">
        <ele>402.86</ele>
        <time>2015-05-05T12:10:41Z</time>
      </trkpt>
      <trkpt lat="44.45705" lon="4.14003">
        <ele>401.05</ele>
        <time>2015-05-05T12:10:58Z</time>
      </trkpt>
      <trkpt lat="44.45724" lon="4.14007">
        <ele>391.4</ele>
        <time>2015-05-05T12:11:16Z</time>
      </trkpt>
      <trkpt lat="44.45742" lon="4.14011">
        <ele>388.34</ele>
        <time>2015-05-05T12:11:39Z</time>
      </trkpt>
      <trkpt lat="44.45759" lon="4.14021">
        <ele>398.79</ele>
        <time>2015-05-05T12:11:59Z</time>
      </trkpt>
      <trkpt lat="44.45776" lon="4.14028">
        <ele>403.21</ele>
        <time>2015-05-05T12:12:24Z</time>
      </trkpt>
      <trkpt lat="44.45793" lon="4.1404">
        <ele>412.18</ele>
        <time>2015-05-05T12:12:42Z</time>
      </trkpt>
      <trkpt lat="44.45812" lon="4.14047">
        <ele>419.51</ele>
        <time>2015-05-05T12:13:14Z</time>
      </trkpt>
      <trkpt lat="44.45831" lon="4.14046">
        <ele>414.7</ele>
        <time>2015-05-05T12:13:28Z</time>
      </trkpt>
      <trkpt lat="44.45849" lon="4.14049">
        <ele>420.24</ele>
        <time>2015-05-05T12:13:44Z</time>
      </trkpt>
      <trkpt lat="44.45868" lon="4.14048">
        <ele>425.5</ele>
        <time>2015-05-05T12:13:57Z</time>
      </trkpt>
      <trkpt lat="44.45886" lon="4.14046">
        <ele>431.25</ele>
        <time>2015-05-05T12:14:18Z</time>
      </trkpt>
      <trkpt lat="44.45905" lon="4.14038">
        <ele>433.53</ele>
        <time>2015-05-05T12:14:33Z</time>
      </trkpt>
      <trkpt lat="44.45921" lon="4.14028">
        <ele>433.72</ele>
        <time>2015-05-05T12:14:48Z</time>
      </trkpt>
      <trkpt lat="44.45939" lon="4.1402">
        <ele>437.23</ele>
        <time>2015-05-05T12:15:06Z</time>
      </trkpt>
      <trkpt lat="44.45955" lon="4.14007">
        <ele>436.22</ele>
        <time>2015-05-05T12:15:20Z</time>
      </trkpt>
      <trkpt lat="44.45972" lon="4.13995">
        <ele>436.96</ele>
        <time>2015-05-05T12:15:41Z</time>
      </trkpt>
      <trkpt lat="44.45986" lon="4.13979">
        <ele>436.62</ele>
        <time>2015-05-05T12:15:56Z</time>
      </trkpt>
      <trkpt lat="44.46002" lon="4.13967">
        <ele>433.41</ele>
        <time>2015-05-05T12:16:14Z</time>
      </trkpt>
      <trkpt lat="44.46018" lon="4.13954">
        <ele>433.7</ele>
        <time>2015-05-05T12:16:36Z</time>
      </trkpt>
      <trkpt lat="44.46033" lon="4.13936">
        <ele>431.23</ele>
        <time>2015-05-05T12:16:52Z</time>
      </trkpt>
      <trkpt lat="44.46048" lon="4.13924">
        <ele>433.69</ele>
        <time>2015-05-05T12:17:13Z</time>
      </trkpt>
      <trkpt lat="44.46062" lon="4.13906">
        <ele>434.25</ele>
        <time>2015-05-05T12:17:25Z</time>
      </trkpt>
      <trkpt lat="44.46078" lon="4.13891">
        <ele>429.61</ele>
        <time>2015-05-05T12:17:38Z</time>
      </trkpt>
      <trkpt lat="44.46094" lon="4.13881">
        <ele>432.71</ele>
        <time>2015-05-05T12:17:55Z</time>
      </trkpt>
      <trkpt lat="44.46108" lon="4.13864">
        <ele>427.98</ele>
        <time>2015-05-05T12:19:59Z</time>
      </trkpt>
      <trkpt lat="44.46125" lon="4.13855">
        <ele>427.69</ele>
        <time>2015-05-05T12:20:09Z</time>
      </trkpt>
      <trkpt lat="44.46142" lon="4.13844">
        <ele>421.59</ele>
        <time>2015-05-05T12:20:26Z</time>
      </trkpt>
      <trkpt lat="44.46159" lon="4.13832">
        <ele>421.72</ele>
        <time>2015-05-05T12:20:40Z</time>
      </trkpt>
      <trkpt lat="44.46175" lon="4.13818">
        <ele>420.81</ele>
        <time>2015-05-05T12:20:55Z</time>
      </trkpt>
      <trkpt lat="44.46188" lon="4.13799">
        <ele>413.83</ele>
        <time>2015-05-05T12:21:13Z</time>
      </trkpt>
      <trkpt lat="44.46204" lon="4.13788">
        <ele>415.87</ele>
        <time>2015-05-05T12:21:32Z</time>
      </trkpt>
      <trkpt lat="44.46221" lon="4.13775">
        <ele>415.38</ele>
        <time>2015-05-05T12:21:46Z</time>
      </trkpt>
      <trkpt lat="44.46236" lon="4.13762">
        <ele>417.17</ele>
        <time>2015-05-05T12:22:06Z</time>
      </trkpt>
      <trkpt lat="44.46252" lon="4.13747">
        <ele>414.11</ele>
        <time>2015-05-05T12:22:23Z</time>
      </trkpt>
      <trkpt lat="44.46268" lon="4.13734">
        <ele>415.31</ele>
        <time>2015-05-05T12:22:40Z</time>
      </trkpt>
      <trkpt lat="44.46285" lon="4.13724">
        <ele>418.57</ele>
        <time>2015-05-05T12:22:56Z</time>
      </trkpt>
      <trkpt lat="44.463" lon="4.13707">
        <ele>419.85</ele>
        <time>2015-05-05T12:23:10Z</time>
      </trkpt>
      <trkpt lat="44.46315" lon="4.13692">
        <ele>418.25</ele>
        <time>2015-05-05T12:23:27Z</time>
      </trkpt>
      <trkpt lat="44.46329" lon="4.13675">
        <ele>430.76</ele>
        <time>2015-05-05T12:23:49Z</time>
      </trkpt>
      <trkpt lat="44.46345" lon="4.13661">
        <ele>436.69</ele>
        <time>2015-05-05T12:24:18Z</time>
      </trkpt>
      <trkpt lat="44.46362" lon="4.13651">
        <ele>440.31</ele>
        <time>2015-05-05T12:24:37Z</time>
      </trkpt>
      <trkpt lat="44.46379" lon="4.13641">
        <ele>443.3</ele>
        <time>2015-05-05T12:24:58Z</time>
      </trkpt>
      <trkpt lat="44.46397" lon="4.13641">
        <ele>440.21</ele>
        <time>2015-05-05T12:25:15Z</time>
      </trkpt>
      <trkpt lat="44.46416" lon="4.13635">
        <ele>442.49</ele>
        <time>2015-05-05T12:25:36Z</time>
      </trkpt>
      <trkpt lat="44.46434" lon="4.13629">
        <ele>444.65</ele>
        <time>2015-05-05T12:25:52Z</time>
      </trkpt>
      <trkpt lat="44.46451" lon="4.13619">
        <ele>445.32</ele>
        <time>2015-05-05T12:26:11Z</time>
      </trkpt>
      <trkpt lat="44.46468" lon="4.13607">
        <ele>449.06</ele>
        <time>2015-05-05T12:26:27Z</time>
      </trkpt>
      <trkpt lat="44.4648" lon="4.13627">
        <ele>449.2</ele>
        <time>2015-05-05T12:27:17Z</time>
      </trkpt>
      <trkpt lat="44.46496" lon="4.13639">
        <ele>450.47</ele>
        <time>2015-05-05T12:27:40Z</time>
      </trkpt>
      <trkpt lat="44.46515" lon="4.13635">
        <ele>448.8</ele>
        <time>2015-05-05T12:28:02Z</time>
      </trkpt>
      <trkpt lat="44.46533" lon="4.13642">
        <ele>443.59</ele>
        <time>2015-05-05T12:28:18Z</time>
      </trkpt>
      <trkpt lat="44.4655" lon="4.13652">
        <ele>439.69</ele>
        <time>2015-05-05T12:28:40Z</time>
      </trkpt>
      <trkpt lat="44.46558" lon="4.13674">
        <ele>439.2</ele>
        <time>2015-05-05T12:28:57Z</time>
      </trkpt>
      <trkpt lat="44.4657" lon="4.13695">
        <ele>442.46</ele>
        <time>2015-05-05T12:29:16Z</time>
      </trkpt>
      <trkpt lat="44.46584" lon="4.13712">
        <ele>443.09</ele>
        <time>2015-05-05T12:29:35Z</time>
      </trkpt>
      <trkpt lat="44.46598" lon="4.13729">
        <ele>443.41</ele>
        <time>2015-05-05T12:29:50Z</time>
      </trkpt>
      <trkpt lat="44.46614" lon="4.13741">
        <ele>447.28</ele>
        <time>2015-05-05T12:30:03Z</time>
      </trkpt>
      <trkpt lat="44.46626" lon="4.13762">
        <ele>455.07</ele>
        <time>2015-05-05T12:30:18Z</time>
      </trkpt>
      <trkpt lat="44.46629" lon="4.13787">
        <ele>454.8</ele>
        <time>2015-05-05T12:30:33Z</time>
      </trkpt>
      <trkpt lat="44.4664" lon="4.13808">
        <ele>454.97</ele>
        <time>2015-05-05T12:30:53Z</time>
      </trkpt>
      <trkpt lat="44.46646" lon="4.13833">
        <ele>457.57</ele>
        <time>2015-05-05T12:31:10Z</time>
      </trkpt>
      <trkpt lat="44.46649" lon="4.13858">
        <ele>458.23</ele>
        <time>2015-05-05T12:31:31Z</time>
      </trkpt>
      <trkpt lat="44.46649" lon="4.13885">
        <ele>461.26</ele>
        <time>2015-05-05T12:31:49Z</time>
      </trkpt>
      <trkpt lat="44.46645" lon="4.1391">
        <ele>460.88</ele>
        <time>2015-05-05T12:32:04Z</time>
      </trkpt>
      <trkpt lat="44.46645" lon="4.13936">
        <ele>462.6</ele>
        <time>2015-05-05T12:39:44Z</time>
      </trkpt>
      <trkpt lat="44.4664" lon="4.13962">
        <ele>460.89</ele>
        <time>2015-05-05T12:40:01Z</time>
      </trkpt>
      <trkpt lat="44.46629" lon="4.13984">
        <ele>460.5</ele>
        <time>2015-05-05T12:40:16Z</time>
      </trkpt>
      <trkpt lat="44.4662" lon="4.14007">
        <ele>461.83</ele>
        <time>2015-05-05T12:40:33Z</time>
      </trkpt>
      <trkpt lat="44.46605" lon="4.1402">
        <ele>460.23</ele>
        <time>2015-05-05T12:40:48Z</time>
      </trkpt>
      <trkpt lat="44.46592" lon="4.14039">
        <ele>454.12</ele>
        <time>2015-05-05T12:41:04Z</time>
      </trkpt>
      <trkpt lat="44.46586" lon="4.14064">
        <ele>457.12</ele>
        <time>2015-05-05T12:41:24Z</time>
      </trkpt>
      <trkpt lat="44.46573" lon="4.14081">
        <ele>457.35</ele>
        <time>2015-05-05T12:41:38Z</time>
      </trkpt>
      <trkpt lat="44.46558" lon="4.14095">
        <ele>458.23</ele>
        <time>2015-05-05T12:41:52Z</time>
      </trkpt>
      <trkpt lat="44.46545" lon="4.14113">
        <ele>455.01</ele>
        <time>2015-05-05T12:42:08Z</time>
      </trkpt>
      <trkpt lat="44.46533" lon="4.14133">
        <ele>454.06</ele>
        <time>2015-05-05T12:42:21Z</time>
      </trkpt>
      <trkpt lat="44.46519" lon="4.1415">
        <ele>451.29</ele>
        <time>2015-05-05T12:42:36Z</time>
      </trkpt>
      <trkpt lat="44.46507" lon="4.14169">
        <ele>453.18</ele>
        <time>2015-05-05T12:42:50Z</time>
      </trkpt>
      <trkpt lat="44.46494" lon="4.14188">
        <ele>452.23</ele>
        <time>2015-05-05T12:43:06Z</time>
      </trkpt>
      <trkpt lat="44.46482" lon="4.14208">
        <ele>447.77</ele>
        <time>2015-05-05T12:43:24Z</time>
      </trkpt>
      <trkpt lat="44.46479" lon="4.14233">
        <ele>448.32</ele>
        <time>2015-05-05T12:43:45Z</time>
      </trkpt>
      <trkpt lat="44.46479" lon="4.14259">
        <ele>442.67</ele>
        <time>2015-05-05T12:44:03Z</time>
      </trkpt>
      <trkpt lat="44.46471" lon="4.14284">
        <ele>439.47</ele>
        <time>2015-05-05T12:44:20Z</time>
      </trkpt>
      <trkpt lat="44.46461" lon="4.14305">
        <ele>439.87</ele>
        <time>2015-05-05T12:44:36Z</time>
      </trkpt>
      <trkpt lat="44.4645" lon="4.14327">
        <ele>438.33</ele>
        <time>2015-05-05T12:44:52Z</time>
      </trkpt>
      <trkpt lat="44.46436" lon="4.14343">
        <ele>429.67</ele>
        <time>2015-05-05T12:45:08Z</time>
      </trkpt>
      <trkpt lat="44.46423" lon="4.14362">
        <ele>433.93</ele>
        <time>2015-05-05T12:45:21Z</time>
      </trkpt>
      <trkpt lat="44.46408" lon="4.14377">
        <ele>429.05</ele>
        <time>2015-05-05T12:45:37Z</time>
      </trkpt>
      <trkpt lat="44.46393" lon="4.14393">
        <ele>432.51</ele>
        <time>2015-05-05T12:45:54Z</time>
      </trkpt>
      <trkpt lat="44.46377" lon="4.14407">
        <ele>434.69</ele>
        <time>2015-05-05T12:46:13Z</time>
      </trkpt>
      <trkpt lat="44.4636" lon="4.14414">
        <ele>429.94</ele>
        <time>2015-05-05T12:46:33Z</time>
      </trkpt>
      <trkpt lat="44.46345" lon="4.14429">
        <ele>426.85</ele>
        <time>2015-05-05T12:46:49Z</time>
      </trkpt>
      <trkpt lat="44.46329" lon="4.14442">
        <ele>421.74</ele>
        <time>2015-05-05T12:47:06Z</time>
      </trkpt>
      <trkpt lat="44.46347" lon="4.14446">
        <ele>414.62</ele>
        <time>2015-05-05T12:48:57Z</time>
      </trkpt>
      <trkpt lat="44.46366" lon="4.14442">
        <ele>403.96</ele>
        <time>2015-05-05T12:49:10Z</time>
      </trkpt>
      <trkpt lat="44.46386" lon="4.1444">
        <ele>405.99</ele>
        <time>2015-05-05T12:49:18Z</time>
      </trkpt>
      <trkpt lat="44.46405" lon="4.14447">
        <ele>401.02</ele>
        <time>2015-05-05T12:50:00Z</time>
      </trkpt>
      <trkpt lat="44.46423" lon="4.1445">
        <ele>393.12</ele>
        <time>2015-05-05T12:50:08Z</time>
      </trkpt>
      <trkpt lat="44.46439" lon="4.14464">
        <ele>395.65</ele>
        <time>2015-05-05T12:50:27Z</time>
      </trkpt>
      <trkpt lat="44.46457" lon="4.14463">
        <ele>402.38</ele>
        <time>2015-05-05T12:51:18Z</time>
      </trkpt>
      <trkpt lat="44.46473" lon="4.14448">
        <ele>401.72</ele>
        <time>2015-05-05T12:51:33Z</time>
      </trkpt>
      <trkpt lat="44.46488" lon="4.14435">
        <ele>405.64</ele>
        <time>2015-05-05T12:51:44Z</time>
      </trkpt>
      <trkpt lat="44.46499" lon="4.14413">
        <ele>399.5</ele>
        <time>2015-05-05T12:52:05Z</time>
      </trkpt>
      <trkpt lat="44.46515" lon="4.14399">
        <ele>406.36</ele>
        <time>2015-05-05T12:52:18Z</time>
      </trkpt>
      <trkpt lat="44.46526" lon="4.14379">
        <ele>399.34</ele>
        <time>2015-05-05T12:52:38Z</time>
      </trkpt>
      <trkpt lat="44.46536" lon="4.14358">
        <ele>400.63</ele>
        <time>2015-05-05T12:52:57Z</time>
      </trkpt>
      <trkpt lat="44.4655" lon="4.14338">
        <ele>403.19</ele>
        <time>2015-05-05T12:53:10Z</time>
      </trkpt>
      <trkpt lat="44.46561" lon="4.14316">
        <ele>404.69</ele>
        <time>2015-05-05T12:53:26Z</time>
      </trkpt>
      <trkpt lat="44.46571" lon="4.14294">
        <ele>408.39</ele>
        <time>2015-05-05T12:53:42Z</time>
      </trkpt>
      <trkpt lat="44.46581" lon="4.14273">
        <ele>402.84</ele>
        <time>2015-05-05T12:53:59Z</time>
      </trkpt>
      <trkpt lat="44.46598" lon="4.14258">
        <ele>396.69</ele>
        <time>2015-05-05T12:54:29Z</time>
      </trkpt>
      <trkpt lat="44.46614" lon="4.14242">
        <ele>387.94</ele>
        <time>2015-05-05T12:54:48Z</time>
      </trkpt>
      <trkpt lat="44.46631" lon="4.14229">
        <ele>379.8</ele>
        <time>2015-05-05T12:55:06Z</time>
      </trkpt>
      <trkpt lat="44.4665" lon="4.14223">
        <ele>388.1</ele>
        <time>2015-05-05T12:55:14Z</time>
      </trkpt>
      <trkpt lat="44.46669" lon="4.14225">
        <ele>388.61</ele>
        <time>2015-05-05T12:55:25Z</time>
      </trkpt>
      <trkpt lat="44.46688" lon="4.14228">
        <ele>394.41</ele>
        <time>2015-05-05T12:55:46Z</time>
      </trkpt>
      <trkpt lat="44.46705" lon="4.14218">
        <ele>397.5</ele>
        <time>2015-05-05T12:56:03Z</time>
      </trkpt>
      <trkpt lat="44.46721" lon="4.14204">
        <ele>396.61</ele>
        <time>2015-05-05T12:56:20Z</time>
      </trkpt>
      <trkpt lat="44.46734" lon="4.14185">
        <ele>397.36</ele>
        <time>2015-05-05T12:57:02Z</time>
      </trkpt>
      <trkpt lat="44.46748" lon="4.14169">
        <ele>397.4</ele>
        <time>2015-05-05T12:57:18Z</time>
      </trkpt>
      <trkpt lat="44.46761" lon="4.1415">
        <ele>400.56</ele>
        <time>2015-05-05T12:57:35Z</time>
      </trkpt>
      <trkpt lat="44.46774" lon="4.14131">
        <ele>404.5</ele>
        <time>2015-05-05T13:01:42Z</time>
      </trkpt>
      <trkpt lat="44.46783" lon="4.14108">
        <ele>410.6</ele>
        <time>2015-05-05T13:01:52Z</time>
      </trkpt>
      <trkpt lat="44.46792" lon="4.14085">
        <ele>406.84</ele>
        <time>2015-05-05T13:02:06Z</time>
      </trkpt>
      <trkpt lat="44.468" lon="4.14061">
        <ele>404.68</ele>
        <time>2015-05-05T13:02:44Z</time>
      </trkpt>
      <trkpt lat="44.46814" lon="4.14042">
        <ele>398.2</ele>
        <time>2015-05-05T13:03:05Z</time>
      </trkpt>
      <trkpt lat="44.46828" lon="4.14027">
        <ele>397.14</ele>
        <time>2015-05-05T13:03:25Z</time>
      </trkpt>
      <trkpt lat="44.46843" lon="4.1401">
        <ele>404.06</ele>
        <time>2015-05-05T13:03:42Z</time>
      </trkpt>
      <trkpt lat="44.46847" lon="4.13985">
        <ele>406.4</ele>
        <time>2015-05-05T13:04:01Z</time>
      </trkpt>
      <trkpt lat="44.46849" lon="4.13959">
        <ele>409.55</ele>
        <time>2015-05-05T13:04:19Z</time>
      </trkpt>
      <trkpt lat="44.46842" lon="4.13935">
        <ele>409.58</ele>
        <time>2015-05-05T13:04:37Z</time>
      </trkpt>
      <trkpt lat="44.46842" lon="4.13909">
        <ele>412.66</ele>
        <time>2015-05-05T13:04:53Z</time>
      </trkpt>
      <trkpt lat="44.46839" lon="4.13883">
        <ele>408.03</ele>
        <time>2015-05-05T13:05:12Z</time>
      </trkpt>
      <trkpt lat="44.46836" lon="4.13856">
        <ele>417.78</ele>
        <time>2015-05-05T13:05:31Z</time>
      </trkpt>
      <trkpt lat="44.46842" lon="4.13832">
        <ele>416.21</ele>
        <time>2015-05-05T13:05:47Z</time>
      </trkpt>
      <trkpt lat="44.46847" lon="4.13808">
        <ele>413.2</ele>
        <time>2015-05-05T13:06:05Z</time>
      </trkpt>
      <trkpt lat="44.46854" lon="4.13784">
        <ele>415.14</ele>
        <time>2015-05-05T13:06:29Z</time>
      </trkpt>
      <trkpt lat="44.46857" lon="4.13758">
        <ele>422.84</ele>
        <time>2015-05-05T13:06:47Z</time>
      </trkpt>
      <trkpt lat="44.46861" lon="4.13733">
        <ele>426.82</ele>
        <time>2015-05-05T13:06:59Z</time>
      </trkpt>
      <trkpt lat="44.46859" lon="4.13707">
        <ele>423.44</ele>
        <time>2015-05-05T13:07:22Z</time>
      </trkpt>
      <trkpt lat="44.46865" lon="4.13683">
        <ele>422.74</ele>
        <time>2015-05-05T13:07:32Z</time>
      </trkpt>
      <trkpt lat="44.4687" lon="4.13658">
        <ele>419.19</ele>
        <time>2015-05-05T13:08:02Z</time>
      </trkpt>
      <trkpt lat="44.46879" lon="4.13636">
        <ele>418.52</ele>
        <time>2015-05-05T13:08:17Z</time>
      </trkpt>
      <trkpt lat="44.46891" lon="4.13615">
        <ele>423.55</ele>
        <time>2015-05-05T13:08:37Z</time>
      </trkpt>
      <trkpt lat="44.46906" lon="4.13601">
        <ele>429.8</ele>
        <time>2015-05-05T13:08:55Z</time>
      </trkpt>
      <trkpt lat="44.4692" lon="4.13584">
        <ele>424.49</ele>
        <time>2015-05-05T13:09:16Z</time>
      </trkpt>
      <trkpt lat="44.46933" lon="4.13566">
        <ele>423.43</ele>
        <time>2015-05-05T13:09:35Z</time>
      </trkpt>
      <trkpt lat="44.46944" lon="4.13545">
        <ele>428.36</ele>
        <time>2015-05-05T13:09:54Z</time>
      </trkpt>
      <trkpt lat="44.46957" lon="4.13528">
        <ele>433.02</ele>
        <time>2015-05-05T13:10:04Z</time>
      </trkpt>
      <trkpt lat="44.46964" lon="4.13502">
        <ele>433.92</ele>
        <time>2015-05-05T13:10:26Z</time>
      </trkpt>
      <trkpt lat="44.46967" lon="4.13477">
        <ele>440.35</ele>
        <time>2015-05-05T13:10:39Z</time>
      </trkpt>
      <trkpt lat="44.46975" lon="4.13452">
        <ele>441.6</ele>
        <time>2015-05-05T13:10:57Z</time>
      </trkpt>
      <trkpt lat="44.46981" lon="4.13428">
        <ele>445.09</ele>
        <time>2015-05-05T13:11:15Z</time>
      </trkpt>
      <trkpt lat="44.46981" lon="4.13402">
        <ele>443.62</ele>
        <time>2015-05-05T13:11:35Z</time>
      </trkpt>
      <trkpt lat="44.4698" lon="4.13376">
        <ele>443.18</ele>
        <time>2015-05-05T13:11:51Z</time>
      </trkpt>
      <trkpt lat="44.46982" lon="4.13349">
        <ele>448.09</ele>
        <time>2015-05-05T13:12:10Z</time>
      </trkpt>
      <trkpt lat="44.46977" lon="4.13325">
        <ele>450.42</ele>
        <time>2015-05-05T13:12:25Z</time>
      </trkpt>
      <trkpt lat="44.46973" lon="4.13299">
        <ele>448.45</ele>
        <time>2015-05-05T13:12:45Z</time>
      </trkpt>
      <trkpt lat="44.46972" lon="4.13273">
        <ele>451.22</ele>
        <time>2015-05-05T13:13:02Z</time>
      </trkpt>
      <trkpt lat="44.46969" lon="4.13247">
        <ele>449.18</ele>
        <time>2015-05-05T13:13:22Z</time>
      </trkpt>
      <trkpt lat="44.46972" lon="4.13222">
        <ele>447.19</ele>
        <time>2015-05-05T13:13:41Z</time>
      </trkpt>
      <trkpt lat="44.46979" lon="4.13198">
        <ele>449.71</ele>
        <time>2015-05-05T13:13:55Z</time>
      </trkpt>
      <trkpt lat="44.46979" lon="4.13172">
        <ele>451.17</ele>
        <time>2015-05-05T13:14:16Z</time>
      </trkpt>
      <trkpt lat="44.46965" lon="4.13188">
        <ele>448.09</ele>
        <time>2015-05-05T13:14:46Z</time>
      </trkpt>
      <trkpt lat="44.46947" lon="4.13195">
        <ele>456.83</ele>
        <time>2015-05-05T13:14:59Z</time>
      </trkpt>
      <trkpt lat="44.46933" lon="4.13211">
        <ele>458.31</ele>
        <time>2015-05-05T13:15:17Z</time>
      </trkpt>
      <trkpt lat="44.4692" lon="4.13229">
        <ele>461.46</ele>
        <time>2015-05-05T13:15:37Z</time>
      </trkpt>
      <trkpt lat="44.46929" lon="4.13207">
        <ele>453.96</ele>
        <time>2015-05-05T13:16:25Z</time>
      </trkpt>
      <trkpt lat="44.46944" lon="4.13191">
        <ele>444.18</ele>
        <time>2015-05-05T13:16:39Z</time>
      </trkpt>
      <trkpt lat="44.4696" lon="4.13176">
        <ele>446.68</ele>
        <time>2015-05-05T13:16:55Z</time>
      </trkpt>
      <trkpt lat="44.46972" lon="4.13157">
        <ele>446.67</ele>
        <time>2015-05-05T13:17:12Z</time>
      </trkpt>
      <trkpt lat="44.46984" lon="4.13139">
        <ele>448.18</ele>
        <time>2015-05-05T13:17:25Z</time>
      </trkpt>
      <trkpt lat="44.46997" lon="4.1312">
        <ele>449.19</ele>
        <time>2015-05-05T13:17:40Z</time>
      </trkpt>
      <trkpt lat="44.47006" lon="4.13098">
        <ele>450.56</ele>
        <time>2015-05-05T13:18:01Z</time>
      </trkpt>
      <trkpt lat="44.47015" lon="4.13074">
        <ele>455.54</ele>
        <time>2015-05-05T13:18:35Z</time>
      </trkpt>
      <trkpt lat="44.47026" lon="4.13053">
        <ele>455.04</ele>
        <time>2015-05-05T13:18:47Z</time>
      </trkpt>
      <trkpt lat="44.4704" lon="4.13036">
        <ele>459.35</ele>
        <time>2015-05-05T13:18:58Z</time>
      </trkpt>
      <trkpt lat="44.47049" lon="4.13014">
        <ele>459.81</ele>
        <time>2015-05-05T13:19:12Z</time>
      </trkpt>
      <trkpt lat="44.47057" lon="4.12989">
        <ele>457.59</ele>
        <time>2015-05-05T13:19:32Z</time>
      </trkpt>
      <trkpt lat="44.47064" lon="4.12965">
        <ele>455.76</ele>
        <time>2015-05-05T13:19:50Z</time>
      </trkpt>
      <trkpt lat="44.47071" lon="4.12942">
        <ele>456.24</ele>
        <time>2015-05-05T13:20:06Z</time>
      </trkpt>
      <trkpt lat="44.47079" lon="4.12918">
        <ele>451.84</ele>
        <time>2015-05-05T13:20:23Z</time>
      </trkpt>
      <trkpt lat="44.47096" lon="4.12908">
        <ele>456.3</ele>
        <time>2015-05-05T13:20:41Z</time>
      </trkpt>
      <trkpt lat="44.47095" lon="4.12881">
        <ele>454.67</ele>
        <time>2015-05-05T13:20:50Z</time>
      </trkpt>
      <trkpt lat="44.47099" lon="4.12855">
        <ele>454.26</ele>
        <time>2015-05-05T13:21:05Z</time>
      </trkpt>
      <trkpt lat="44.47107" lon="4.12832">
        <ele>447.94</ele>
        <time>2015-05-05T13:22:14Z</time>
      </trkpt>
      <trkpt lat="44.47103" lon="4.12805">
        <ele>455.24</ele>
        <time>2015-05-05T13:23:42Z</time>
      </trkpt>
      <trkpt lat="44.47105" lon="4.12779">
        <ele>455.59</ele>
        <time>2015-05-05T13:23:55Z</time>
      </trkpt>
      <trkpt lat="44.47099" lon="4.12755">
        <ele>456.63</ele>
        <time>2015-05-05T13:24:09Z</time>
      </trkpt>
      <trkpt lat="44.47094" lon="4.12729">
        <ele>454.32</ele>
        <time>2015-05-05T13:24:24Z</time>
      </trkpt>
      <trkpt lat="44.47084" lon="4.12708">
        <ele>449.17</ele>
        <time>2015-05-05T13:24:43Z</time>
      </trkpt>
      <trkpt lat="44.47066" lon="4.127">
        <ele>451.7</ele>
        <time>2015-05-05T13:25:01Z</time>
      </trkpt>
      <trkpt lat="44.47051" lon="4.12687">
        <ele>455.89</ele>
        <time>2015-05-05T13:25:16Z</time>
      </trkpt>
      <trkpt lat="44.47042" lon="4.12665">
        <ele>441.77</ele>
        <time>2015-05-05T13:26:06Z</time>
      </trkpt>
      <trkpt lat="44.47026" lon="4.12677">
        <ele>442.89</ele>
        <time>2015-05-05T13:26:41Z</time>
      </trkpt>
      <trkpt lat="44.47022" lon="4.12702">
        <ele>441.58</ele>
        <time>2015-05-05T13:27:04Z</time>
      </trkpt>
      <trkpt lat="44.4702" lon="4.12727">
        <ele>436.72</ele>
        <time>2015-05-05T13:28:58Z</time>
      </trkpt>
      <trkpt lat="44.4702" lon="4.12754">
        <ele>441.7</ele>
        <time>2015-05-05T13:29:32Z</time>
      </trkpt>
      <trkpt lat="44.47006" lon="4.12737">
        <ele>432.92</ele>
        <time>2015-05-05T13:30:40Z</time>
      </trkpt>
      <trkpt lat="44.47003" lon="4.1271">
        <ele>428.95</ele>
        <time>2015-05-05T13:30:58Z</time>
      </trkpt>
      <trkpt lat="44.46992" lon="4.12689">
        <ele>432.08</ele>
        <time>2015-05-05T13:31:10Z</time>
      </trkpt>
      <trkpt lat="44.46974" lon="4.12685">
        <ele>431.45</ele>
        <time>2015-05-05T13:31:32Z</time>
      </trkpt>
      <trkpt lat="44.46956" lon="4.12686">
        <ele>429.56</ele>
        <time>2015-05-05T13:31:48Z</time>
      </trkpt>
      <trkpt lat="44.46938" lon="4.12688">
        <ele>426.2</ele>
        <time>2015-05-05T13:32:05Z</time>
      </trkpt>
      <trkpt lat="44.4692" lon="4.12696">
        <ele>422.64</ele>
        <time>2015-05-05T13:32:24Z</time>
      </trkpt>
      <trkpt lat="44.46904" lon="4.12708">
        <ele>422.19</ele>
        <time>2015-05-05T13:32:39Z</time>
      </trkpt>
      <trkpt lat="44.46886" lon="4.12713">
        <ele>421.25</ele>
        <time>2015-05-05T13:32:56Z</time>
      </trkpt>
      <trkpt lat="44.46879" lon="4.12737">
        <ele>416.69</ele>
        <time>2015-05-05T13:33:50Z</time>
      </trkpt>
      <trkpt lat="44.46877" lon="4.12763">
        <ele>412.61</ele>
        <time>2015-05-05T13:34:05Z</time>
      </trkpt>
      <trkpt lat="44.46864" lon="4.12782">
        <ele>403.07</ele>
        <time>2015-05-05T13:34:26Z</time>
      </trkpt>
      <trkpt lat="44.4685" lon="4.12803">
        <ele>409.61</ele>
        <time>2015-05-05T13:34:40Z</time>
      </trkpt>
      <trkpt lat="44.46844" lon="4.12779">
        <ele>411.2</ele>
        <time>2015-05-05T13:34:53Z</time>
      </trkpt>
      <trkpt lat="44.46826" lon="4.12783">
        <ele>414.04</ele>
        <time>2015-05-05T13:35:18Z</time>
      </trkpt>
      <trkpt lat="44.46822" lon="4.12757">
        <ele>411.37</ele>
        <time>2015-05-05T13:35:35Z</time>
      </trkpt>
      <trkpt lat="44.46809" lon="4.12739">
        <ele>408.31</ele>
        <time>2015-05-05T13:36:46Z</time>
      </trkpt>
      <trkpt lat="44.4679" lon="4.12738">
        <ele>405.65</ele>
        <time>2015-05-05T13:41:44Z</time>
      </trkpt>
      <trkpt lat="44.46773" lon="4.12749">
        <ele>404.7</ele>
        <time>2015-05-05T13:42:02Z</time>
      </trkpt>
      <trkpt lat="44.46762" lon="4.12728">
        <ele>400.76</ele>
        <time>2015-05-05T13:42:46Z</time>
      </trkpt>
      <trkpt lat="44.46753" lon="4.12705">
        <ele>404.19</ele>
        <time>2015-05-05T13:43:05Z</time>
      </trkpt>
      <trkpt lat="44.46735" lon="4.1271">
        <ele>400.45</ele>
        <time>2015-05-05T13:43:24Z</time>
      </trkpt>
      <trkpt lat="44.46717" lon="4.12715">
        <ele>399.74</ele>
        <time>2015-05-05T13:43:43Z</time>
      </trkpt>
      <trkpt lat="44.46699" lon="4.12707">
        <ele>398.56</ele>
        <time>2015-05-05T13:44:00Z</time>
      </trkpt>
      <trkpt lat="44.46681" lon="4.12711">
        <ele>396.19</ele>
        <time>2015-05-05T13:44:20Z</time>
      </trkpt>
      <trkpt lat="44.46666" lon="4.12726">
        <ele>392.94</ele>
        <time>2015-05-05T13:44:41Z</time>
      </trkpt>
      <trkpt lat="44.46651" lon="4.12742">
        <ele>390.25</ele>
        <time>2015-05-05T13:44:59Z</time>
      </trkpt>
      <trkpt lat="44.46634" lon="4.12749">
        <ele>384.19</ele>
        <time>2015-05-05T13:45:24Z</time>
      </trkpt>
      <trkpt lat="44.46618" lon="4.12736">
        <ele>379.79</ele>
        <time>2015-05-05T13:45:46Z</time>
      </trkpt>
      <trkpt lat="44.46609" lon="4.12714">
        <ele>382.39</ele>
        <time>2015-05-05T13:46:03Z</time>
      </trkpt>
      <trkpt lat="44.46599" lon="4.12736">
        <ele>381.97</ele>
        <time>2015-05-05T13:46:23Z</time>
      </trkpt>
      <trkpt lat="44.46594" lon="4.12762">
        <ele>378.86</ele>
        <time>2015-05-05T13:46:42Z</time>
      </trkpt>
      <trkpt lat="44.46594" lon="4.12788">
        <ele>374.55</ele>
        <time>2015-05-05T13:47:02Z</time>
      </trkpt>
      <trkpt lat="44.46603" lon="4.1281">
        <ele>379.28</ele>
        <time>2015-05-05T13:47:18Z</time>
      </trkpt>
      <trkpt lat="44.46592" lon="4.1283">
        <ele>377.39</ele>
        <time>2015-05-05T13:47:30Z</time>
      </trkpt>
      <trkpt lat="44.46573" lon="4.12827">
        <ele>376.4</ele>
        <time>2015-05-05T13:48:18Z</time>
      </trkpt>
      <trkpt lat="44.46556" lon="4.12836">
        <ele>370.9</ele>
        <time>2015-05-05T13:48:27Z</time>
      </trkpt>
      <trkpt lat="44.46538" lon="4.12835">
        <ele>370</ele>
        <time>2015-05-05T13:48:47Z</time>
      </trkpt>
      <trkpt lat="44.46521" lon="4.12844">
        <ele>355.31</ele>
        <time>2015-05-05T13:49:36Z</time>
      </trkpt>
      <trkpt lat="44.46503" lon="4.12855">
        <ele>351.47</ele>
        <time>2015-05-05T13:49:47Z</time>
      </trkpt>
      <trkpt lat="44.46485" lon="4.12853">
        <ele>349.32</ele>
        <time>2015-05-05T13:50:09Z</time>
      </trkpt>
      <trkpt lat="44.46469" lon="4.12841">
        <ele>343.66</ele>
        <time>2015-05-05T13:50:51Z</time>
      </trkpt>
      <trkpt lat="44.4645" lon="4.12838">
        <ele>344.22</ele>
        <time>2015-05-05T13:51:24Z</time>
      </trkpt>
      <trkpt lat="44.46433" lon="4.12847">
        <ele>345.99</ele>
        <time>2015-05-05T13:51:41Z</time>
      </trkpt>
      <trkpt lat="44.46422" lon="4.12868">
        <ele>341.94</ele>
        <time>2015-05-05T13:52:03Z</time>
      </trkpt>
      <trkpt lat="44.46408" lon="4.1285">
        <ele>339.26</ele>
        <time>2015-05-05T13:52:44Z</time>
      </trkpt>
      <trkpt lat="44.4639" lon="4.12844">
        <ele>331.72</ele>
        <time>2015-05-05T13:53:12Z</time>
      </trkpt>
      <trkpt lat="44.46373" lon="4.12852">
        <ele>329.53</ele>
        <time>2015-05-05T13:53:47Z</time>
      </trkpt>
      <trkpt lat="44.46363" lon="4.12874">
        <ele>325.01</ele>
        <time>2015-05-05T13:54:20Z</time>
      </trkpt>
      <trkpt lat="44.46363" lon="4.12899">
        <ele>322.49</ele>
        <time>2015-05-05T13:56:58Z</time>
      </trkpt>
      <trkpt lat="44.46374" lon="4.1292">
        <ele>315.48</ele>
        <time>2015-05-05T14:01:33Z</time>
      </trkpt>
      <trkpt lat="44.46387" lon="4.1294">
        <ele>310.37</ele>
        <time>2015-05-05T14:01:43Z</time>
      </trkpt>
      <trkpt lat="44.46375" lon="4.12961">
        <ele>316.97</ele>
        <time>2015-05-05T14:02:19Z</time>
      </trkpt>
      <trkpt lat="44.46357" lon="4.12961">
        <ele>309.41</ele>
        <time>2015-05-05T14:02:37Z</time>
      </trkpt>
      <trkpt lat="44.46339" lon="4.12953">
        <ele>311.01</ele>
        <time>2015-05-05T14:03:01Z</time>
      </trkpt>
      <trkpt lat="44.46321" lon="4.12955">
        <ele>313.26</ele>
        <time>2015-05-05T14:03:16Z</time>
      </trkpt>
      <trkpt lat="44.46309" lon="4.12974">
        <ele>312.76</ele>
        <time>2015-05-05T14:03:34Z</time>
      </trkpt>
      <trkpt lat="44.46292" lon="4.12965">
        <ele>310.89</ele>
        <time>2015-05-05T14:03:50Z</time>
      </trkpt>
      <trkpt lat="44.46287" lon="4.12941">
        <ele>304.27</ele>
        <time>2015-05-05T14:04:14Z</time>
      </trkpt>
      <trkpt lat="44.46283" lon="4.12916">
        <ele>307.48</ele>
        <time>2015-05-05T14:04:28Z</time>
      </trkpt>
      <trkpt lat="44.46274" lon="4.12894">
        <ele>309.39</ele>
        <time>2015-05-05T14:04:41Z</time>
      </trkpt>
      <trkpt lat="44.46256" lon="4.12887">
        <ele>311.22</ele>
        <time>2015-05-05T14:05:06Z</time>
      </trkpt>
      <trkpt lat="44.46239" lon="4.12876">
        <ele>315.47</ele>
        <time>2015-05-05T14:05:19Z</time>
      </trkpt>
      <trkpt lat="44.46233" lon="4.12852">
        <ele>311.54</ele>
        <time>2015-05-05T14:05:49Z</time>
      </trkpt>
      <trkpt lat="44.46225" lon="4.12828">
        <ele>313.49</ele>
        <time>2015-05-05T14:06:05Z</time>
      </trkpt>
      <trkpt lat="44.46209" lon="4.12813">
        <ele>314.4</ele>
        <time>2015-05-05T14:06:23Z</time>
      </trkpt>
      <trkpt lat="44.46192" lon="4.12803">
        <ele>310.1</ele>
        <time>2015-05-05T14:06:43Z</time>
      </trkpt>
      <trkpt lat="44.46176" lon="4.12817">
        <ele>316.72</ele>
        <time>2015-05-05T14:07:04Z</time>
      </trkpt>
      <trkpt lat="44.46163" lon="4.12835">
        <ele>309.07</ele>
        <time>2015-05-05T14:07:19Z</time>
      </trkpt>
      <trkpt lat="44.46147" lon="4.12846">
        <ele>308.64</ele>
        <time>2015-05-05T14:07:36Z</time>
      </trkpt>
      <trkpt lat="44.46131" lon="4.1283">
        <ele>310.43</ele>
        <time>2015-05-05T14:07:50Z</time>
      </trkpt>
      <trkpt lat="44.46113" lon="4.12832">
        <ele>309.32</ele>
        <time>2015-05-05T14:08:10Z</time>
      </trkpt>
      <trkpt lat="44.46095" lon="4.12835">
        <ele>314.99</ele>
        <time>2015-05-05T14:08:30Z</time>
      </trkpt>
      <trkpt lat="44.46081" lon="4.12819">
        <ele>315</ele>
        <time>2015-05-05T14:08:42Z</time>
      </trkpt>
      <trkpt lat="44.46063" lon="4.12825">
        <ele>307.04</ele>
        <time>2015-05-05T14:09:04Z</time>
      </trkpt>
      <trkpt lat="44.46045" lon="4.12828">
        <ele>306.17</ele>
        <time>2015-05-05T14:09:26Z</time>
      </trkpt>
      <trkpt lat="44.46026" lon="4.1283">
        <ele>306.64</ele>
        <time>2015-05-05T14:09:40Z</time>
      </trkpt>
      <trkpt lat="44.46009" lon="4.12841">
        <ele>304.94</ele>
        <time>2015-05-05T14:10:23Z</time>
      </trkpt>
      <trkpt lat="44.45993" lon="4.12852">
        <ele>303.76</ele>
        <time>2015-05-05T14:10:43Z</time>
      </trkpt>
      <trkpt lat="44.45979" lon="4.12868">
        <ele>300.16</ele>
        <time>2015-05-05T14:11:12Z</time>
      </trkpt>
      <trkpt lat="44.45961" lon="4.12876">
        <ele>310.06</ele>
        <time>2015-05-05T14:18:25Z</time>
      </trkpt>
      <trkpt lat="44.45949" lon="4.12896">
        <ele>298.08</ele>
        <time>2015-05-05T14:18:41Z</time>
      </trkpt>
      <trkpt lat="44.45933" lon="4.12909">
        <ele>302</ele>
        <time>2015-05-05T14:19:04Z</time>
      </trkpt>
      <trkpt lat="44.45918" lon="4.12926">
        <ele>301.86</ele>
        <time>2015-05-05T14:19:17Z</time>
      </trkpt>
      <trkpt lat="44.45902" lon="4.1294">
        <ele>310.16</ele>
        <time>2015-05-05T14:19:33Z</time>
      </trkpt>
      <trkpt lat="44.45897" lon="4.12965">
        <ele>315.22</ele>
        <time>2015-05-05T14:19:52Z</time>
      </trkpt>
      <trkpt lat="44.45895" lon="4.12991">
        <ele>316.36</ele>
        <time>2015-05-05T14:20:14Z</time>
      </trkpt>
      <trkpt lat="44.45897" lon="4.13017">
        <ele>321.67</ele>
        <time>2015-05-05T14:20:34Z</time>
      </trkpt>
      <trkpt lat="44.45909" lon="4.13036">
        <ele>323.78</ele>
        <time>2015-05-05T14:21:01Z</time>
      </trkpt>
      <trkpt lat="44.45915" lon="4.13059">
        <ele>326.97</ele>
        <time>2015-05-05T14:21:16Z</time>
      </trkpt>
      <trkpt lat="44.45922" lon="4.13057">
        <ele>325.69</ele>
        <time>2015-05-05T14:21:32Z</time>
      </trkpt>
      <trkpt lat="44.45929" lon="4.1308">
        <ele>325.68</ele>
        <time>2015-05-05T14:22:33Z</time>
      </trkpt>
      <trkpt lat="44.45934" lon="4.13104">
        <ele>324.54</ele>
        <time>2015-05-05T14:22:51Z</time>
      </trkpt>
      <trkpt lat="44.45933" lon="4.1313">
        <ele>324.18</ele>
        <time>2015-05-05T14:23:18Z</time>
      </trkpt>
      <trkpt lat="44.45938" lon="4.13154">
        <ele>325.92</ele>
        <time>2015-05-05T14:23:39Z</time>
      </trkpt>
      <trkpt lat="44.45946" lon="4.13178">
        <ele>329.07</ele>
        <time>2015-05-05T14:23:56Z</time>
      </trkpt>
      <trkpt lat="44.45946" lon="4.13203">
        <ele>328.6</ele>
        <time>2015-05-05T14:24:21Z</time>
      </trkpt>
      <trkpt lat="44.45951" lon="4.13229">
        <ele>326.05</ele>
        <time>2015-05-05T14:24:35Z</time>
      </trkpt>
      <trkpt lat="44.4596" lon="4.13252">
        <ele>332.59</ele>
        <time>2015-05-05T14:24:57Z</time>
      </trkpt>
      <trkpt lat="44.45972" lon="4.13271">
        <ele>328.6</ele>
        <time>2015-05-05T14:25:15Z</time>
      </trkpt>
      <trkpt lat="44.45987" lon="4.13286">
        <ele>328.4</ele>
        <time>2015-05-05T14:25:35Z</time>
      </trkpt>
      <trkpt lat="44.46003" lon="4.13301">
        <ele>329.53</ele>
        <time>2015-05-05T14:25:53Z</time>
      </trkpt>
      <trkpt lat="44.46017" lon="4.13317">
        <ele>331.62</ele>
        <time>2015-05-05T14:26:10Z</time>
      </trkpt>
      <trkpt lat="44.46029" lon="4.13336">
        <ele>334.03</ele>
        <time>2015-05-05T14:26:26Z</time>
      </trkpt>
      <trkpt lat="44.46035" lon="4.13361">
        <ele>335.91</ele>
        <time>2015-05-05T14:26:43Z</time>
      </trkpt>
      <trkpt lat="44.4603" lon="4.13386">
        <ele>333.76</ele>
        <time>2015-05-05T14:27:04Z</time>
      </trkpt>
      <trkpt lat="44.46027" lon="4.13412">
        <ele>331.34</ele>
        <time>2015-05-05T14:27:21Z</time>
      </trkpt>
      <trkpt lat="44.46025" lon="4.13439">
        <ele>331.51</ele>
        <time>2015-05-05T14:27:39Z</time>
      </trkpt>
      <trkpt lat="44.46021" lon="4.13465">
        <ele>333.87</ele>
        <time>2015-05-05T14:27:54Z</time>
      </trkpt>
      <trkpt lat="44.46015" lon="4.13489">
        <ele>334.91</ele>
        <time>2015-05-05T14:28:11Z</time>
      </trkpt>
      <trkpt lat="44.46012" lon="4.13515">
        <ele>336.55</ele>
        <time>2015-05-05T14:28:29Z</time>
      </trkpt>
      <trkpt lat="44.46016" lon="4.13539">
        <ele>335.86</ele>
        <time>2015-05-05T14:28:45Z</time>
      </trkpt>
      <trkpt lat="44.46005" lon="4.1356">
        <ele>328.36</ele>
        <time>2015-05-05T14:29:14Z</time>
      </trkpt>
      <trkpt lat="44.45993" lon="4.13581">
        <ele>320.56</ele>
        <time>2015-05-05T14:29:25Z</time>
      </trkpt>
      <trkpt lat="44.4598" lon="4.136">
        <ele>316.52</ele>
        <time>2015-05-05T14:29:41Z</time>
      </trkpt>
      <trkpt lat="44.45963" lon="4.13606">
        <ele>315.2</ele>
        <time>2015-05-05T14:29:58Z</time>
      </trkpt>
      <trkpt lat="44.45945" lon="4.13609">
        <ele>317.78</ele>
        <time>2015-05-05T14:30:11Z</time>
      </trkpt>
      <trkpt lat="44.45926" lon="4.1361">
        <ele>318.31</ele>
        <time>2015-05-05T14:30:30Z</time>
      </trkpt>
      <trkpt lat="44.45908" lon="4.13607">
        <ele>315.74</ele>
        <time>2015-05-05T14:30:49Z</time>
      </trkpt>
      <trkpt lat="44.45891" lon="4.13592">
        <ele>314.58</ele>
        <time>2015-05-05T14:31:10Z</time>
      </trkpt>
      <trkpt lat="44.45872" lon="4.13586">
        <ele>316.53</ele>
        <time>2015-05-05T14:31:53Z</time>
      </trkpt>
      <trkpt lat="44.45855" lon="4.13575">
        <ele>320.17</ele>
        <time>2015-05-05T14:32:03Z</time>
      </trkpt>
      <trkpt lat="44.4584" lon="4.1356">
        <ele>321.36</ele>
        <time>2015-05-05T14:32:08Z</time>
      </trkpt>
      <trkpt lat="44.45826" lon="4.13543">
        <ele>313</ele>
        <time>2015-05-05T14:32:21Z</time>
      </trkpt>
      <trkpt lat="44.4581" lon="4.13529">
        <ele>308.52</ele>
        <time>2015-05-05T14:32:48Z</time>
      </trkpt>
      <trkpt lat="44.45793" lon="4.13521">
        <ele>311.92</ele>
        <time>2015-05-05T14:33:05Z</time>
      </trkpt>
      <trkpt lat="44.45774" lon="4.13522">
        <ele>305.98</ele>
        <time>2015-05-05T14:33:22Z</time>
      </trkpt>
      <trkpt lat="44.45755" lon="4.13526">
        <ele>307.82</ele>
        <time>2015-05-05T14:33:46Z</time>
      </trkpt>
      <trkpt lat="44.45736" lon="4.13523">
        <ele>315.21</ele>
        <time>2015-05-05T14:34:20Z</time>
      </trkpt>
      <trkpt lat="44.4572" lon="4.13509">
        <ele>320.41</ele>
        <time>2015-05-05T14:34:31Z</time>
      </trkpt>
      <trkpt lat="44.45702" lon="4.13505">
        <ele>320.57</ele>
        <time>2015-05-05T14:34:47Z</time>
      </trkpt>
      <trkpt lat="44.45685" lon="4.13496">
        <ele>324.34</ele>
        <time>2015-05-05T14:35:11Z</time>
      </trkpt>
      <trkpt lat="44.45668" lon="4.13487">
        <ele>328.15</ele>
        <time>2015-05-05T14:35:27Z</time>
      </trkpt>
      <trkpt lat="44.4565" lon="4.1348">
        <ele>329.52</ele>
        <time>2015-05-05T14:35:43Z</time>
      </trkpt>
      <trkpt lat="44.45632" lon="4.13474">
        <ele>330.07</ele>
        <time>2015-05-05T14:36:03Z</time>
      </trkpt>
      <trkpt lat="44.45616" lon="4.1346">
        <ele>331.58</ele>
        <time>2015-05-05T14:36:16Z</time>
      </trkpt>
      <trkpt lat="44.45598" lon="4.13453">
        <ele>322.73</ele>
        <time>2015-05-05T14:36:52Z</time>
      </trkpt>
      <trkpt lat="44.45578" lon="4.13452">
        <ele>332.54</ele>
        <time>2015-05-05T14:37:04Z</time>
      </trkpt>
      <trkpt lat="44.45562" lon="4.1344">
        <ele>324.25</ele>
        <time>2015-05-05T14:37:19Z</time>
      </trkpt>
      <trkpt lat="44.45544" lon="4.13431">
        <ele>335.8</ele>
        <time>2015-05-05T14:37:36Z</time>
      </trkpt>
      <trkpt lat="44.45526" lon="4.13425">
        <ele>336.35</ele>
        <time>2015-05-05T14:37:57Z</time>
      </trkpt>
      <trkpt lat="44.45509" lon="4.13414">
        <ele>339.98</ele>
        <time>2015-05-05T14:38:26Z</time>
      </trkpt>
      <trkpt lat="44.4549" lon="4.13413">
        <ele>353.35</ele>
        <time>2015-05-05T14:38:45Z</time>
      </trkpt>
      <trkpt lat="44.45483" lon="4.13436">
        <ele>358.08</ele>
        <time>2015-05-05T14:42:01Z</time>
      </trkpt>
      <trkpt lat="44.45491" lon="4.13459">
        <ele>356.32</ele>
        <time>2015-05-05T14:42:37Z</time>
      </trkpt>
      <trkpt lat="44.45486" lon="4.13483">
        <ele>359.13</ele>
        <time>2015-05-05T14:42:57Z</time>
      </trkpt>
      <trkpt lat="44.45479" lon="4.13507">
        <ele>360.64</ele>
        <time>2015-05-05T14:43:19Z</time>
      </trkpt>
      <trkpt lat="44.45483" lon="4.13532">
        <ele>359.6</ele>
        <time>2015-05-05T14:47:51Z</time>
      </trkpt>
      <trkpt lat="44.45488" lon="4.13558">
        <ele>361.81</ele>
        <time>2015-05-05T14:48:04Z</time>
      </trkpt>
      <trkpt lat="44.45493" lon="4.13583">
        <ele>364.28</ele>
        <time>2015-05-05T14:48:21Z</time>
      </trkpt>
      <trkpt lat="44.45498" lon="4.13608">
        <ele>361.8</ele>
        <time>2015-05-05T14:48:36Z</time>
      </trkpt>
      <trkpt lat="44.45501" lon="4.13633">
        <ele>359.58</ele>
        <time>2015-05-05T14:48:53Z</time>
      </trkpt>
      <trkpt lat="44.45502" lon="4.13659">
        <ele>362.7</ele>
        <time>2015-05-05T14:49:10Z</time>
      </trkpt>
      <trkpt lat="44.45501" lon="4.13685">
        <ele>364.1</ele>
        <time>2015-05-05T14:49:27Z</time>
      </trkpt>
      <trkpt lat="44.455" lon="4.13711">
        <ele>368.47</ele>
        <time>2015-05-05T14:49:43Z</time>
      </trkpt>
      <trkpt lat="44.45499" lon="4.13736">
        <ele>368.34</ele>
        <time>2015-05-05T14:49:59Z</time>
      </trkpt>
      <trkpt lat="44.45499" lon="4.13762">
        <ele>366.56</ele>
        <time>2015-05-05T14:50:31Z</time>
      </trkpt>
      <trkpt lat="44.45491" lon="4.13785">
        <ele>367.68</ele>
        <time>2015-05-05T14:50:55Z</time>
      </trkpt>
      <trkpt lat="44.45479" lon="4.13805">
        <ele>361.73</ele>
        <time>2015-05-05T14:51:27Z</time>
      </trkpt>
      <trkpt lat="44.45469" lon="4.13827">
        <ele>365.37</ele>
        <time>2015-05-05T14:51:47Z</time>
      </trkpt>
      <trkpt lat="44.45462" lon="4.1385">
        <ele>365.59</ele>
        <time>2015-05-05T14:52:17Z</time>
      </trkpt>
      <trkpt lat="44.45454" lon="4.13873">
        <ele>361.32</ele>
        <time>2015-05-05T14:52:37Z</time>
      </trkpt>
      <trkpt lat="44.45441" lon="4.13893">
        <ele>372.91</ele>
        <time>2015-05-05T14:53:01Z</time>
      </trkpt>
      <trkpt lat="44.45427" lon="4.13908">
        <ele>382.31</ele>
        <time>2015-05-05T14:53:33Z</time>
      </trkpt>
      <trkpt lat="44.45414" lon="4.13927">
        <ele>388.08</ele>
        <time>2015-05-05T14:53:55Z</time>
      </trkpt>
      <trkpt lat="44.45398" lon="4.13941">
        <ele>390.6</ele>
        <time>2015-05-05T14:54:15Z</time>
      </trkpt>
      <trkpt lat="44.45391" lon="4.13965">
        <ele>402.04</ele>
        <time>2015-05-05T14:54:43Z</time>
      </trkpt>
      <trkpt lat="44.45388" lon="4.1399">
        <ele>404.91</ele>
        <time>2015-05-05T14:55:27Z</time>
      </trkpt>
      <trkpt lat="44.45379" lon="4.14014">
        <ele>410.56</ele>
        <time>2015-05-05T14:55:45Z</time>
      </trkpt>
      <trkpt lat="44.45375" lon="4.14039">
        <ele>408.69</ele>
        <time>2015-05-05T14:57:37Z</time>
      </trkpt>
      <trkpt lat="44.4537" lon="4.14064">
        <ele>407.63</ele>
        <time>2015-05-05T14:59:36Z</time>
      </trkpt>
      <trkpt lat="44.4537" lon="4.14089">
        <ele>408.93</ele>
        <time>2015-05-05T14:59:53Z</time>
      </trkpt>
      <trkpt lat="44.45371" lon="4.14115">
        <ele>412.56</ele>
        <time>2015-05-05T15:00:11Z</time>
      </trkpt>
      <trkpt lat="44.45356" lon="4.14131">
        <ele>412.92</ele>
        <time>2015-05-05T15:00:34Z</time>
      </trkpt>
      <trkpt lat="44.4534" lon="4.14145">
        <ele>417</ele>
        <time>2015-05-05T15:00:53Z</time>
      </trkpt>
      <trkpt lat="44.45325" lon="4.14159">
        <ele>408.37</ele>
        <time>2015-05-05T15:01:14Z</time>
      </trkpt>
      <trkpt lat="44.4531" lon="4.14175">
        <ele>418.17</ele>
        <time>2015-05-05T15:01:31Z</time>
      </trkpt>
      <trkpt lat="44.45295" lon="4.14192">
        <ele>421.74</ele>
        <time>2015-05-05T15:01:48Z</time>
      </trkpt>
      <trkpt lat="44.45283" lon="4.14212">
        <ele>415.99</ele>
        <time>2015-05-05T15:02:04Z</time>
      </trkpt>
      <trkpt lat="44.45269" lon="4.14229">
        <ele>413.22</ele>
        <time>2015-05-05T15:02:25Z</time>
      </trkpt>
      <trkpt lat="44.45256" lon="4.14248">
        <ele>417.09</ele>
        <time>2015-05-05T15:02:38Z</time>
      </trkpt>
      <trkpt lat="44.45245" lon="4.14269">
        <ele>417.06</ele>
        <time>2015-05-05T15:02:54Z</time>
      </trkpt>
      <trkpt lat="44.45229" lon="4.14283">
        <ele>416.09</ele>
        <time>2015-05-05T15:03:11Z</time>
      </trkpt>
      <trkpt lat="44.45214" lon="4.14298">
        <ele>422.59</ele>
        <time>2015-05-05T15:03:27Z</time>
      </trkpt>
      <trkpt lat="44.45197" lon="4.14309">
        <ele>400.84</ele>
        <time>2015-05-05T15:03:43Z</time>
      </trkpt>
      <trkpt lat="44.4518" lon="4.1432">
        <ele>399.35</ele>
        <time>2015-05-05T15:04:10Z</time>
      </trkpt>
      <trkpt lat="44.45162" lon="4.14324">
        <ele>394.66</ele>
        <time>2015-05-05T15:04:24Z</time>
      </trkpt>
      <trkpt lat="44.45143" lon="4.14326">
        <ele>393.24</ele>
        <time>2015-05-05T15:04:39Z</time>
      </trkpt>
      <trkpt lat="44.45124" lon="4.14328">
        <ele>395.25</ele>
        <time>2015-05-05T15:04:55Z</time>
      </trkpt>
      <trkpt lat="44.45107" lon="4.14332">
        <ele>387.85</ele>
        <time>2015-05-05T15:05:12Z</time>
      </trkpt>
      <trkpt lat="44.45088" lon="4.14333">
        <ele>385.51</ele>
        <time>2015-05-05T15:05:30Z</time>
      </trkpt>
      <trkpt lat="44.45069" lon="4.14326">
        <ele>383.23</ele>
        <time>2015-05-05T15:05:45Z</time>
      </trkpt>
      <trkpt lat="44.45052" lon="4.14318">
        <ele>385.14</ele>
        <time>2015-05-05T15:06:01Z</time>
      </trkpt>
      <trkpt lat="44.45034" lon="4.14312">
        <ele>389.86</ele>
        <time>2015-05-05T15:06:19Z</time>
      </trkpt>
      <trkpt lat="44.45016" lon="4.14304">
        <ele>394.74</ele>
        <time>2015-05-05T15:06:42Z</time>
      </trkpt>
      <trkpt lat="44.45" lon="4.14293">
        <ele>390.33</ele>
        <time>2015-05-05T15:07:00Z</time>
      </trkpt>
      <trkpt lat="44.44982" lon="4.14284">
        <ele>387.97</ele>
        <time>2015-05-05T15:09:30Z</time>
      </trkpt>
      <trkpt lat="44.44964" lon="4.1428">
        <ele>385.2</ele>
        <time>2015-05-05T15:09:46Z</time>
      </trkpt>
      <trkpt lat="44.44946" lon="4.14275">
        <ele>381.99</ele>
        <time>2015-05-05T15:10:05Z</time>
      </trkpt>
      <trkpt lat="44.44929" lon="4.14262">
        <ele>384.65</ele>
        <time>2015-05-05T15:10:22Z</time>
      </trkpt>
      <trkpt lat="44.44912" lon="4.14249">
        <ele>380.55</ele>
        <time>2015-05-05T15:10:39Z</time>
      </trkpt>
      <trkpt lat="44.44895" lon="4.1424">
        <ele>376.69</ele>
        <time>2015-05-05T15:10:58Z</time>
      </trkpt>
      <trkpt lat="44.44878" lon="4.14229">
        <ele>380.07</ele>
        <time>2015-05-05T15:11:16Z</time>
      </trkpt>
      <trkpt lat="44.44862" lon="4.14219">
        <ele>380.71</ele>
        <time>2015-05-05T15:11:35Z</time>
      </trkpt>
      <trkpt lat="44.44844" lon="4.14218">
        <ele>383.32</ele>
        <time>2015-05-05T15:11:54Z</time>
      </trkpt>
      <trkpt lat="44.44855" lon="4.14239">
        <ele>393.67</ele>
        <time>2015-05-05T15:12:58Z</time>
      </trkpt>
      <trkpt lat="44.44866" lon="4.14259">
        <ele>392.06</ele>
        <time>2015-05-05T15:13:12Z</time>
      </trkpt>
      <trkpt lat="44.44878" lon="4.14279">
        <ele>391.69</ele>
        <time>2015-05-05T15:13:27Z</time>
      </trkpt>
      <trkpt lat="44.44889" lon="4.14301">
        <ele>388.76</ele>
        <time>2015-05-05T15:13:43Z</time>
      </trkpt>
      <trkpt lat="44.44902" lon="4.14319">
        <ele>390.93</ele>
        <time>2015-05-05T15:13:57Z</time>
      </trkpt>
      <trkpt lat="44.44913" lon="4.14339">
        <ele>391.57</ele>
        <time>2015-05-05T15:14:12Z</time>
      </trkpt>
      <trkpt lat="44.44896" lon="4.14342">
        <ele>386.82</ele>
        <time>2015-05-05T15:14:42Z</time>
      </trkpt>
      <trkpt lat="44.44878" lon="4.14333">
        <ele>383.94</ele>
        <time>2015-05-05T15:15:01Z</time>
      </trkpt>
      <trkpt lat="44.44866" lon="4.14352">
        <ele>385.69</ele>
        <time>2015-05-05T15:15:34Z</time>
      </trkpt>
      <trkpt lat="44.44873" lon="4.14377">
        <ele>389.32</ele>
        <time>2015-05-05T15:15:54Z</time>
      </trkpt>
      <trkpt lat="44.44884" lon="4.14396">
        <ele>387.39</ele>
        <time>2015-05-05T15:16:12Z</time>
      </trkpt>
      <trkpt lat="44.4489" lon="4.14422">
        <ele>389.25</ele>
        <time>2015-05-05T15:16:30Z</time>
      </trkpt>
      <trkpt lat="44.44903" lon="4.14442">
        <ele>386.77</ele>
        <time>2015-05-05T15:16:47Z</time>
      </trkpt>
      <trkpt lat="44.44913" lon="4.14464">
        <ele>386.72</ele>
        <time>2015-05-05T15:17:04Z</time>
      </trkpt>
      <trkpt lat="44.44918" lon="4.14489">
        <ele>383.71</ele>
        <time>2015-05-05T15:17:23Z</time>
      </trkpt>
      <trkpt lat="44.44931" lon="4.14508">
        <ele>380.6</ele>
        <time>2015-05-05T15:17:38Z</time>
      </trkpt>
      <trkpt lat="44.44941" lon="4.14528">
        <ele>371.9</ele>
        <time>2015-05-05T15:17:56Z</time>
      </trkpt>
      <trkpt lat="44.44958" lon="4.1454">
        <ele>369.39</ele>
        <time>2015-05-05T15:18:15Z</time>
      </trkpt>
      <trkpt lat="44.44968" lon="4.14561">
        <ele>367.26</ele>
        <time>2015-05-05T15:18:32Z</time>
      </trkpt>
      <trkpt lat="44.4498" lon="4.14581">
        <ele>368.28</ele>
        <time>2015-05-05T15:18:49Z</time>
      </trkpt>
      <trkpt lat="44.44983" lon="4.14607">
        <ele>369.34</ele>
        <time>2015-05-05T15:19:27Z</time>
      </trkpt>
      <trkpt lat="44.44979" lon="4.14632">
        <ele>372.65</ele>
        <time>2015-05-05T15:19:45Z</time>
      </trkpt>
      <trkpt lat="44.44977" lon="4.14658">
        <ele>379.46</ele>
        <time>2015-05-05T15:20:18Z</time>
      </trkpt>
      <trkpt lat="44.4498" lon="4.14683">
        <ele>382.72</ele>
        <time>2015-05-05T15:20:37Z</time>
      </trkpt>
      <trkpt lat="44.44979" lon="4.14709">
        <ele>387.1</ele>
        <time>2015-05-05T15:20:52Z</time>
      </trkpt>
      <trkpt lat="44.44983" lon="4.14735">
        <ele>385.14</ele>
        <time>2015-05-05T15:21:09Z</time>
      </trkpt>
      <trkpt lat="44.44986" lon="4.14761">
        <ele>385.52</ele>
        <time>2015-05-05T15:21:26Z</time>
      </trkpt>
      <trkpt lat="44.45002" lon="4.14773">
        <ele>381.5</ele>
        <time>2015-05-05T15:21:44Z</time>
      </trkpt>
      <trkpt lat="44.45018" lon="4.14784">
        <ele>379.31</ele>
        <time>2015-05-05T15:21:58Z</time>
      </trkpt>
      <trkpt lat="44.45035" lon="4.14796">
        <ele>376.67</ele>
        <time>2015-05-05T15:22:19Z</time>
      </trkpt>
      <trkpt lat="44.45053" lon="4.14804">
        <ele>382.26</ele>
        <time>2015-05-05T15:22:33Z</time>
      </trkpt>
      <trkpt lat="44.45069" lon="4.14819">
        <ele>376.65</ele>
        <time>2015-05-05T15:22:52Z</time>
      </trkpt>
      <trkpt lat="44.45084" lon="4.14832">
        <ele>375.3</ele>
        <time>2015-05-05T15:23:08Z</time>
      </trkpt>
      <trkpt lat="44.45088" lon="4.14859">
        <ele>373.98</ele>
        <time>2015-05-05T15:23:27Z</time>
      </trkpt>
      <trkpt lat="44.45096" lon="4.14883">
        <ele>378.54</ele>
        <time>2015-05-05T15:23:45Z</time>
      </trkpt>
      <trkpt lat="44.45108" lon="4.14903">
        <ele>375.68</ele>
        <time>2015-05-05T15:24:02Z</time>
      </trkpt>
      <trkpt lat="44.4512" lon="4.14921">
        <ele>380.86</ele>
        <time>2015-05-05T15:24:18Z</time>
      </trkpt>
      <trkpt lat="44.45137" lon="4.14933">
        <ele>380.71</ele>
        <time>2015-05-05T15:24:35Z</time>
      </trkpt>
      <trkpt lat="44.45154" lon="4.14944">
        <ele>376.71</ele>
        <time>2015-05-05T15:24:51Z</time>
      </trkpt>
      <trkpt lat="44.45172" lon="4.14951">
        <ele>374.94</ele>
        <time>2015-05-05T15:25:06Z</time>
      </trkpt>
      <trkpt lat="44.4519" lon="4.14958">
        <ele>377.03</ele>
        <time>2015-05-05T15:25:21Z</time>
      </trkpt>
      <trkpt lat="44.45198" lon="4.14934">
        <ele>382.41</ele>
        <time>2015-05-05T15:25:39Z</time>
      </trkpt>
      <trkpt lat="44.45194" lon="4.14908">
        <ele>383.01</ele>
        <time>2015-05-05T15:25:55Z</time>
      </trkpt>
    </trkseg>
  </trk>
</gpx>